createdAt,value
2018-01-15T00:01:19.043Z,1.70
2018-01-15T00:03:47.177Z,1.70
2018-01-15T00:06:16.068Z,1.80
2018-01-15T00:08:44.975Z,1.80
2018-01-15T00:11:13.112Z,1.70
2018-01-15T00:13:41.258Z,1.70
2018-01-15T00:16:09.392Z,1.80
2018-01-15T00:18:37.518Z,1.80
2018-01-15T00:21:05.622Z,1.80
2018-01-15T00:23:34.519Z,1.90
2018-01-15T00:26:03.404Z,1.90
2018-01-15T00:28:32.313Z,1.90
2018-01-15T00:31:01.195Z,1.90
2018-01-15T00:33:30.107Z,1.80
2018-01-15T00:35:58.238Z,1.80
2018-01-15T00:38:26.358Z,1.80
2018-01-15T00:40:54.475Z,1.80
2018-01-15T00:43:22.610Z,1.80
2018-01-15T00:45:50.729Z,1.80
2018-01-15T00:48:18.863Z,1.80
2018-01-15T00:50:46.985Z,1.80
2018-01-15T00:53:15.892Z,1.80
2018-01-15T00:55:43.998Z,1.80
2018-01-15T00:58:12.146Z,1.80
2018-01-15T01:00:41.039Z,1.90
2018-01-15T01:03:09.186Z,1.80
2018-01-15T01:05:37.308Z,1.90
2018-01-15T01:08:05.622Z,1.80
2018-01-15T01:10:33.755Z,1.70
2018-01-15T01:13:01.896Z,1.80
2018-01-15T01:15:30.785Z,1.70
2018-01-15T01:17:59.690Z,1.70
2018-01-15T01:20:27.790Z,1.70
2018-01-15T01:22:55.937Z,1.70
2018-01-15T01:25:24.068Z,1.70
2018-01-15T01:27:52.191Z,1.60
2018-01-15T01:30:20.302Z,1.60
2018-01-15T01:32:48.442Z,1.60
2018-01-15T01:35:16.551Z,1.60
2018-01-15T01:37:44.681Z,1.60
2018-01-15T01:40:12.798Z,1.60
2018-01-15T01:42:40.938Z,1.60
2018-01-15T01:45:09.058Z,1.60
2018-01-15T01:47:37.168Z,1.60
2018-01-15T01:50:05.315Z,1.60
2018-01-15T01:52:34.231Z,1.50
2018-01-15T01:55:02.775Z,1.50
2018-01-15T01:57:30.874Z,1.50
2018-01-15T01:59:59.032Z,1.50
2018-01-15T02:02:27.144Z,1.50
2018-01-15T02:04:55.293Z,1.40
2018-01-15T02:07:23.426Z,1.40
2018-01-15T02:09:51.572Z,1.50
2018-01-15T02:12:20.492Z,1.40
2018-01-15T02:14:48.631Z,1.40
2018-01-15T02:17:16.774Z,1.40
2018-01-15T02:19:44.922Z,1.40
2018-01-15T02:22:13.034Z,1.40
2018-01-15T02:24:41.184Z,1.40
2018-01-15T02:27:10.054Z,1.40
2018-01-15T02:29:38.196Z,1.40
2018-01-15T02:32:06.317Z,1.50
2018-01-15T02:34:34.459Z,1.40
2018-01-15T02:37:02.567Z,1.40
2018-01-15T02:39:31.483Z,1.50
2018-01-15T02:41:59.587Z,1.50
2018-01-15T02:44:27.730Z,1.50
2018-01-15T02:46:55.845Z,1.40
2018-01-15T02:49:23.978Z,1.50
2018-01-15T02:51:52.113Z,1.40
2018-01-15T02:54:21.031Z,1.40
2018-01-15T02:56:49.150Z,1.40
2018-01-15T02:59:17.318Z,1.40
2018-01-15T03:01:45.431Z,1.40
2018-01-15T03:04:13.602Z,1.30
2018-01-15T03:06:41.735Z,1.30
2018-01-15T03:09:09.875Z,1.30
2018-01-15T03:11:37.991Z,1.30
2018-01-15T03:14:06.296Z,1.30
2018-01-15T03:16:34.401Z,1.30
2018-01-15T03:19:02.546Z,1.30
2018-01-15T03:21:30.685Z,1.30
2018-01-15T03:23:58.844Z,1.30
2018-01-15T03:26:26.950Z,1.30
2018-01-15T03:28:55.084Z,1.30
2018-01-15T03:31:23.196Z,1.20
2018-01-15T03:33:51.344Z,1.20
2018-01-15T03:36:19.465Z,1.20
2018-01-15T03:38:48.359Z,1.20
2018-01-15T03:41:17.280Z,1.20
2018-01-15T03:43:45.402Z,1.20
2018-01-15T03:46:13.565Z,1.20
2018-01-15T03:48:41.694Z,1.20
2018-01-15T03:51:09.811Z,1.20
2018-01-15T03:53:37.943Z,1.20
2018-01-15T03:56:06.071Z,1.20
2018-01-15T03:58:34.221Z,1.20
2018-01-15T04:01:02.657Z,1.30
2018-01-15T04:03:31.023Z,1.20
2018-01-15T04:05:59.916Z,1.20
2018-01-15T04:08:28.818Z,1.20
2018-01-15T04:10:56.941Z,1.20
2018-01-15T04:13:25.100Z,1.10
2018-01-15T04:15:53.234Z,1.20
2018-01-15T04:18:21.386Z,1.10
2018-01-15T04:20:50.289Z,1.10
2018-01-15T04:23:19.187Z,1.10
2018-01-15T04:25:48.088Z,1.10
2018-01-15T04:28:16.203Z,1.10
2018-01-15T04:30:44.335Z,1.10
2018-01-15T04:33:12.467Z,1.20
2018-01-15T04:35:40.626Z,1.10
2018-01-15T04:38:08.738Z,1.10
2018-01-15T04:40:37.644Z,1.10
2018-01-15T04:43:05.771Z,1.10
2018-01-15T04:45:33.908Z,1.10
2018-01-15T04:48:02.182Z,1.10
2018-01-15T04:50:31.272Z,1.00
2018-01-15T04:52:59.377Z,1.00
2018-01-15T04:55:27.505Z,1.00
2018-01-15T04:57:55.627Z,1.00
2018-01-15T05:00:23.761Z,1.00
2018-01-15T05:02:51.870Z,1.00
2018-01-15T05:05:19.998Z,1.10
2018-01-15T05:07:48.134Z,1.00
2018-01-15T05:10:16.274Z,1.00
2018-01-15T05:12:44.380Z,1.00
2018-01-15T05:15:12.550Z,1.00
2018-01-15T05:17:40.667Z,1.00
2018-01-15T05:20:08.789Z,1.00
2018-01-15T05:22:36.898Z,1.00
2018-01-15T05:25:05.075Z,1.00
2018-01-15T05:27:33.196Z,1.00
2018-01-15T05:30:02.603Z,1.00
2018-01-15T05:32:30.696Z,1.00
2018-01-15T05:34:58.832Z,1.10
2018-01-15T05:37:26.948Z,1.00
2018-01-15T05:39:55.850Z,1.10
2018-01-15T05:42:24.723Z,1.10
2018-01-15T05:44:52.853Z,1.10
2018-01-15T05:47:21.005Z,1.00
2018-01-15T05:49:49.144Z,1.00
2018-01-15T05:52:17.254Z,1.00
2018-01-15T05:54:45.376Z,1.00
2018-01-15T05:57:13.493Z,1.00
2018-01-15T05:59:41.650Z,1.00
2018-01-15T06:02:10.532Z,1.00
2018-01-15T06:04:38.653Z,1.00
2018-01-15T06:07:06.783Z,1.00
2018-01-15T06:09:35.741Z,1.00
2018-01-15T06:12:04.052Z,1.00
2018-01-15T06:14:32.998Z,0.90
2018-01-15T06:17:01.297Z,0.90
2018-01-15T06:19:30.435Z,0.90
2018-01-15T06:21:59.303Z,1.00
2018-01-15T06:24:27.482Z,1.00
2018-01-15T06:26:56.358Z,0.90
2018-01-15T06:29:24.498Z,0.90
2018-01-15T06:31:52.614Z,0.90
2018-01-15T06:34:20.749Z,0.90
2018-01-15T06:36:48.869Z,1.00
2018-01-15T06:39:17.773Z,1.00
2018-01-15T06:41:45.895Z,1.00
2018-01-15T06:44:14.030Z,1.00
2018-01-15T06:46:42.155Z,1.00
2018-01-15T06:49:10.281Z,1.10
2018-01-15T06:51:38.403Z,1.10
2018-01-15T06:54:06.509Z,1.10
2018-01-15T06:56:34.674Z,1.10
2018-01-15T06:59:03.548Z,1.20
2018-01-15T07:01:31.673Z,1.20
2018-01-15T07:03:59.778Z,1.20
2018-01-15T07:06:27.895Z,1.20
2018-01-15T07:08:56.602Z,1.20
2018-01-15T07:11:24.848Z,1.30
2018-01-15T07:13:53.744Z,1.20
2018-01-15T07:16:22.647Z,1.20
2018-01-15T07:18:50.759Z,1.20
2018-01-15T07:21:18.981Z,1.20
2018-01-15T07:23:48.190Z,1.30
2018-01-15T07:26:16.357Z,1.30
2018-01-15T07:28:44.545Z,1.30
2018-01-15T07:31:12.688Z,1.30
2018-01-15T07:33:40.857Z,1.30
2018-01-15T07:36:09.770Z,1.30
2018-01-15T07:38:38.637Z,1.40
2018-01-15T07:41:06.770Z,1.40
2018-01-15T07:43:34.886Z,1.40
2018-01-15T07:46:03.034Z,1.50
2018-01-15T07:48:31.129Z,1.50
2018-01-15T07:51:00.630Z,1.60
2018-01-15T07:53:28.847Z,1.80
2018-01-15T07:55:56.967Z,1.90
2018-01-15T07:58:25.096Z,1.90
2018-01-15T08:00:53.226Z,1.90
2018-01-15T08:03:21.334Z,1.90
2018-01-15T08:05:49.487Z,1.90
2018-01-15T08:08:17.593Z,1.90
2018-01-15T08:10:45.722Z,2.00
2018-01-15T08:13:13.833Z,2.00
2018-01-15T08:15:42.031Z,2.10
2018-01-15T08:18:10.146Z,2.10
2018-01-15T08:20:38.280Z,2.10
2018-01-15T08:23:06.385Z,2.20
2018-01-15T08:25:35.300Z,2.20
2018-01-15T08:28:07.699Z,2.20
2018-01-15T08:30:36.480Z,2.20
2018-01-15T08:33:04.654Z,2.20
2018-01-15T08:35:32.796Z,2.30
2018-01-15T08:38:00.897Z,2.40
2018-01-15T08:40:29.092Z,2.60
2018-01-15T08:42:57.194Z,2.70
2018-01-15T08:45:25.422Z,3.00
2018-01-15T08:47:55.066Z,3.20
2018-01-15T08:50:27.789Z,3.70
2018-01-15T08:52:57.072Z,3.70
2018-01-15T08:55:25.314Z,3.80
2018-01-15T08:57:53.423Z,3.30
2018-01-15T09:00:21.542Z,2.90
2018-01-15T09:02:49.666Z,2.70
2018-01-15T09:05:17.789Z,2.60
2018-01-15T09:07:45.898Z,2.50
2018-01-15T09:10:14.067Z,2.40
2018-01-15T09:12:42.165Z,2.40
2018-01-15T09:15:10.287Z,2.30
2018-01-15T09:17:38.398Z,2.30
2018-01-15T09:20:06.534Z,2.30
2018-01-15T09:22:34.646Z,2.30
2018-01-15T09:25:02.798Z,2.30
2018-01-15T09:27:31.352Z,2.20
2018-01-15T09:30:00.656Z,2.30
2018-01-15T09:32:29.167Z,2.30
2018-01-15T09:34:57.339Z,2.30
2018-01-15T09:37:25.458Z,2.30
2018-01-15T09:39:54.338Z,2.40
2018-01-15T09:42:22.470Z,2.40
2018-01-15T09:44:50.576Z,2.50
2018-01-15T09:47:19.505Z,2.80
2018-01-15T09:49:47.606Z,2.80
2018-01-15T09:52:15.743Z,2.90
2018-01-15T09:54:44.623Z,3.00
2018-01-15T09:57:12.757Z,2.90
2018-01-15T09:59:40.863Z,3.00
2018-01-15T10:02:09.006Z,3.00
2018-01-15T10:04:37.119Z,3.00
2018-01-15T10:07:06.029Z,3.00
2018-01-15T10:09:34.141Z,3.00
2018-01-15T10:12:02.273Z,3.00
2018-01-15T10:14:30.380Z,3.00
2018-01-15T10:16:58.538Z,3.00
2018-01-15T10:19:26.690Z,3.10
2018-01-15T10:21:55.566Z,3.30
2018-01-15T10:24:25.586Z,3.30
2018-01-15T10:26:54.474Z,3.50
2018-01-15T10:29:23.346Z,3.60
2018-01-15T10:31:51.485Z,3.50
2018-01-15T10:34:19.586Z,3.60
2018-01-15T10:36:47.726Z,3.70
2018-01-15T10:39:15.834Z,3.80
2018-01-15T10:41:43.962Z,3.80
2018-01-15T10:44:12.084Z,3.90
2018-01-15T10:46:40.275Z,3.90
2018-01-15T10:49:09.156Z,4.00
2018-01-15T10:51:37.282Z,4.00
2018-01-15T10:54:06.154Z,3.90
2018-01-15T10:56:34.465Z,3.90
2018-01-15T10:59:02.585Z,3.90
2018-01-15T11:01:31.794Z,3.90
2018-01-15T11:04:00.127Z,3.80
2018-01-15T11:06:28.450Z,3.80
2018-01-15T11:08:56.847Z,3.80
2018-01-15T11:11:25.015Z,3.90
2018-01-15T11:13:53.608Z,3.90
2018-01-15T11:16:23.458Z,3.70
2018-01-15T11:18:51.613Z,3.80
2018-01-15T11:21:19.785Z,3.70
2018-01-15T11:23:47.929Z,3.70
2018-01-15T11:26:16.123Z,3.70
2018-01-15T11:28:44.235Z,3.70
2018-01-15T11:31:12.633Z,3.70
2018-01-15T11:33:41.624Z,3.80
2018-01-15T11:36:10.074Z,3.80
2018-01-15T11:38:38.175Z,3.80
2018-01-15T11:41:07.102Z,3.80
2018-01-15T11:43:35.231Z,3.80
2018-01-15T11:46:03.364Z,3.80
2018-01-15T11:48:32.390Z,3.90
2018-01-15T11:51:01.234Z,3.90
2018-01-15T11:53:30.003Z,3.90
2018-01-15T11:55:58.157Z,3.90
2018-01-15T11:58:27.324Z,3.90
2018-01-15T12:00:55.664Z,3.90
2018-01-15T12:03:23.897Z,3.90
2018-01-15T12:05:52.050Z,4.00
2018-01-15T12:08:20.413Z,4.00
2018-01-15T12:10:48.749Z,4.00
2018-01-15T12:13:17.031Z,4.00
2018-01-15T12:15:45.924Z,4.10
2018-01-15T12:18:14.870Z,4.20
2018-01-15T12:20:42.985Z,4.20
2018-01-15T12:23:11.886Z,4.30
2018-01-15T12:25:40.004Z,4.20
2018-01-15T12:28:08.183Z,4.30
2018-01-15T12:30:36.769Z,4.30
2018-01-15T12:33:04.977Z,4.20
2018-01-15T12:35:34.483Z,4.20
2018-01-15T12:38:03.876Z,4.20
2018-01-15T12:40:32.867Z,4.20
2018-01-15T12:43:01.034Z,4.20
2018-01-15T12:45:29.134Z,4.20
2018-01-15T12:47:57.262Z,4.20
2018-01-15T12:50:25.392Z,4.20
2018-01-15T12:52:53.538Z,4.20
2018-01-15T12:55:22.437Z,4.20
2018-01-15T12:57:50.584Z,4.20
2018-01-15T13:00:18.698Z,4.30
2018-01-15T13:02:46.840Z,4.20
2018-01-15T13:05:14.947Z,4.20
2018-01-15T13:07:55.873Z,4.20
2018-01-15T13:10:24.504Z,4.10
2018-01-15T13:12:52.698Z,4.10
2018-01-15T13:15:21.578Z,4.00
2018-01-15T13:17:50.142Z,4.00
2018-01-15T13:20:19.263Z,4.00
2018-01-15T13:22:47.879Z,4.00
2018-01-15T13:25:16.002Z,4.00
2018-01-15T13:27:44.606Z,4.10
2018-01-15T13:30:13.232Z,4.10
2018-01-15T13:32:41.380Z,4.10
2018-01-15T13:35:10.280Z,4.10
2018-01-15T13:37:39.732Z,4.10
2018-01-15T13:40:07.849Z,4.10
2018-01-15T13:42:36.768Z,4.10
2018-01-15T13:45:04.950Z,4.10
2018-01-15T13:47:33.089Z,4.10
2018-01-15T13:50:02.340Z,4.10
2018-01-15T13:52:30.495Z,4.00
2018-01-15T13:54:58.604Z,4.10
2018-01-15T13:57:26.737Z,4.10
2018-01-15T13:59:55.314Z,4.20
2018-01-15T14:02:23.457Z,4.20
2018-01-15T14:04:51.569Z,4.20
2018-01-15T14:07:19.701Z,4.20
2018-01-15T14:09:47.831Z,4.20
2018-01-15T14:12:15.990Z,4.20
2018-01-15T14:14:44.112Z,4.30
2018-01-15T14:17:12.266Z,4.30
2018-01-15T14:19:40.386Z,4.40
2018-01-15T14:22:09.292Z,4.60
2018-01-15T14:24:37.411Z,4.60
2018-01-15T14:27:05.527Z,4.60
2018-01-15T14:29:33.671Z,4.60
2018-01-15T14:32:01.809Z,4.70
2018-01-15T14:34:29.960Z,4.60
2018-01-15T14:36:58.086Z,4.60
2018-01-15T14:39:26.223Z,4.50
2018-01-15T14:41:54.344Z,4.50
2018-01-15T14:44:23.265Z,4.50
2018-01-15T14:46:51.380Z,4.40
2018-01-15T14:49:19.989Z,4.50
2018-01-15T14:51:48.091Z,4.50
2018-01-15T14:54:16.235Z,4.40
2018-01-15T14:56:45.136Z,4.30
2018-01-15T14:59:14.030Z,4.30
2018-01-15T15:01:43.533Z,4.40
2018-01-15T15:04:12.448Z,4.30
2018-01-15T15:06:40.567Z,4.30
2018-01-15T15:09:08.703Z,4.30
2018-01-15T15:11:36.967Z,4.30
2018-01-15T15:14:05.335Z,4.40
2018-01-15T15:16:33.546Z,4.40
2018-01-15T15:19:01.754Z,4.40
2018-01-15T15:21:30.179Z,4.40
2018-01-15T15:23:58.653Z,4.40
2018-01-15T15:26:26.866Z,4.50
2018-01-15T15:28:55.118Z,4.50
2018-01-15T15:31:23.245Z,4.50
2018-01-15T15:33:52.283Z,4.50
2018-01-15T15:36:20.553Z,4.50
2018-01-15T15:38:49.450Z,4.60
2018-01-15T15:41:17.564Z,4.60
2018-01-15T15:43:45.706Z,4.60
2018-01-15T15:46:13.979Z,4.60
2018-01-15T15:48:42.304Z,4.60
2018-01-15T15:51:10.569Z,4.60
2018-01-15T15:53:38.816Z,4.60
2018-01-15T15:56:08.265Z,4.60
2018-01-15T15:58:36.429Z,4.60
2018-01-15T16:01:04.615Z,4.60
2018-01-15T16:03:32.836Z,4.60
2018-01-15T16:06:01.013Z,4.60
2018-01-15T16:08:29.521Z,4.60
2018-01-15T16:10:58.000Z,4.60
2018-01-15T16:13:26.260Z,4.60
2018-01-15T16:15:54.761Z,4.60
2018-01-15T16:18:23.352Z,4.60
2018-01-15T16:20:51.556Z,4.60
2018-01-15T16:23:20.482Z,4.60
2018-01-15T16:25:48.917Z,4.60
2018-01-15T16:28:17.055Z,4.60
2018-01-15T16:30:45.198Z,4.60
2018-01-15T16:33:13.682Z,4.60
2018-01-15T16:35:41.863Z,4.60
2018-01-15T16:38:10.148Z,4.60
2018-01-15T16:40:38.322Z,4.60
2018-01-15T16:43:06.771Z,4.50
2018-01-15T16:45:35.770Z,4.50
2018-01-15T16:48:05.142Z,4.50
2018-01-15T16:50:33.285Z,4.50
2018-01-15T16:53:01.402Z,4.40
2018-01-15T16:55:29.563Z,4.50
2018-01-15T16:57:57.678Z,4.50
2018-01-15T17:00:25.852Z,4.50
2018-01-15T17:02:54.002Z,4.50
2018-01-15T17:05:23.975Z,4.50
2018-01-15T17:07:52.066Z,4.50
2018-01-15T17:10:20.209Z,4.50
2018-01-15T17:12:48.384Z,4.50
2018-01-15T17:15:16.580Z,4.60
2018-01-15T17:17:44.893Z,4.50
2018-01-15T17:20:14.228Z,4.60
2018-01-15T17:22:42.466Z,4.60
2018-01-15T17:25:11.822Z,4.60
2018-01-15T17:27:39.942Z,4.60
2018-01-15T17:30:08.901Z,4.70
2018-01-15T17:32:37.097Z,4.70
2018-01-15T17:35:05.433Z,4.70
2018-01-15T17:37:33.710Z,4.70
2018-01-15T17:40:02.118Z,4.80
2018-01-15T17:42:30.358Z,4.80
2018-01-15T17:44:59.350Z,4.80
2018-01-15T17:47:27.543Z,4.80
2018-01-15T17:49:55.747Z,4.80
2018-01-15T17:52:24.041Z,4.70
2018-01-15T17:54:52.966Z,4.60
2018-01-15T17:57:21.191Z,4.60
2018-01-15T17:59:49.402Z,4.60
2018-01-15T18:02:17.531Z,4.60
2018-01-15T18:04:45.662Z,4.70
2018-01-15T18:07:13.786Z,4.70
2018-01-15T18:09:42.077Z,4.70
2018-01-15T18:12:10.190Z,4.60
2018-01-15T18:14:38.348Z,4.70
2018-01-15T18:17:06.446Z,4.60
2018-01-15T18:19:34.623Z,4.60
2018-01-15T18:22:03.818Z,4.50
2018-01-15T18:24:31.991Z,4.40
2018-01-15T18:27:00.933Z,4.30
2018-01-15T18:29:29.079Z,4.30
2018-01-15T18:31:57.974Z,4.20
2018-01-15T18:34:26.124Z,4.20
2018-01-15T18:36:55.024Z,4.10
2018-01-15T18:39:24.035Z,4.10
2018-01-15T18:41:52.909Z,4.10
2018-01-15T18:44:21.062Z,4.10
2018-01-15T18:46:49.278Z,4.10
2018-01-15T18:49:18.265Z,4.10
2018-01-15T18:51:46.372Z,4.10
2018-01-15T18:54:14.542Z,4.20
2018-01-15T18:56:42.731Z,4.20
2018-01-15T18:59:10.942Z,4.20
2018-01-15T19:01:39.077Z,4.20
2018-01-15T19:04:07.329Z,4.30
2018-01-15T19:06:36.211Z,4.40
2018-01-15T19:09:05.800Z,4.40
2018-01-15T19:11:34.195Z,4.40
2018-01-15T19:14:03.093Z,4.30
2018-01-15T19:16:32.310Z,4.30
2018-01-15T19:19:00.705Z,4.30
2018-01-15T19:21:29.623Z,4.30
2018-01-15T19:23:57.793Z,4.30
2018-01-15T19:26:26.685Z,4.30
2018-01-15T19:28:55.581Z,4.30
2018-01-15T19:31:23.912Z,4.30
2018-01-15T19:33:52.448Z,4.30
2018-01-15T19:36:22.401Z,4.30
2018-01-15T19:38:50.519Z,4.30
2018-01-15T19:41:33.539Z,4.30
2018-01-15T19:44:07.581Z,4.20
2018-01-15T19:46:42.176Z,4.20
2018-01-15T19:49:16.439Z,4.10
2018-01-15T19:51:51.131Z,4.10
2018-01-15T19:54:24.817Z,4.10
2018-01-15T19:56:58.579Z,4.10
2018-01-15T19:59:33.108Z,4.10
2018-01-15T20:02:06.846Z,4.10
2018-01-15T20:04:41.413Z,4.20
2018-01-15T20:07:15.183Z,4.20
2018-01-15T20:09:48.944Z,4.20
2018-01-15T20:12:17.830Z,4.10
2018-01-15T20:14:46.000Z,4.10
2018-01-15T20:17:14.876Z,4.20
2018-01-15T20:19:43.014Z,4.20
2018-01-15T20:22:11.136Z,4.30
2018-01-15T20:24:40.032Z,4.40
2018-01-15T20:27:08.957Z,4.40
2018-01-15T20:29:37.067Z,4.40
2018-01-15T20:32:05.195Z,4.40
2018-01-15T20:34:33.814Z,4.40
2018-01-15T20:37:01.960Z,4.50
2018-01-15T20:39:30.141Z,4.50
2018-01-15T20:41:58.288Z,4.50
2018-01-15T20:44:26.423Z,4.50
2018-01-15T20:46:54.579Z,4.50
2018-01-15T20:49:22.713Z,4.50
2018-01-15T20:51:50.893Z,4.60
2018-01-15T20:54:19.039Z,4.60
2018-01-15T20:56:47.295Z,4.60
2018-01-15T20:59:15.445Z,4.60
2018-01-15T21:01:43.849Z,4.70
2018-01-15T21:04:12.155Z,4.70
2018-01-15T21:06:40.296Z,4.70
2018-01-15T21:09:08.495Z,4.70
2018-01-15T21:11:36.666Z,4.70
2018-01-15T21:14:04.769Z,4.70
2018-01-15T21:16:32.911Z,4.80
2018-01-15T21:19:02.842Z,4.80
2018-01-15T21:21:31.841Z,4.80
2018-01-15T21:24:00.445Z,4.80
2018-01-15T21:26:28.591Z,4.90
2018-01-15T21:28:56.718Z,5.00
2018-01-15T21:31:25.638Z,5.00
2018-01-15T21:33:53.754Z,4.90
2018-01-15T21:36:21.883Z,4.90
2018-01-15T21:38:49.990Z,4.90
2018-01-15T21:41:18.136Z,4.90
2018-01-15T21:43:46.242Z,4.90
2018-01-15T21:46:14.371Z,4.90
2018-01-15T21:48:43.344Z,5.00
2018-01-15T21:51:12.240Z,5.00
2018-01-15T21:53:41.113Z,5.00
2018-01-15T21:56:09.251Z,5.00
2018-01-15T21:58:37.374Z,5.00
2018-01-15T22:01:05.502Z,5.00
2018-01-15T22:03:33.614Z,5.00
2018-01-15T22:06:02.877Z,5.00
2018-01-15T22:08:30.981Z,5.00
2018-01-15T22:10:59.124Z,5.00
2018-01-15T22:13:27.231Z,5.00
2018-01-15T22:15:55.379Z,4.90
2018-01-15T22:18:23.512Z,4.90
2018-01-15T22:20:51.648Z,4.90
2018-01-15T22:23:19.757Z,4.90
2018-01-15T22:25:47.888Z,4.90
2018-01-15T22:28:15.999Z,5.00
2018-01-15T22:30:44.136Z,5.00
2018-01-15T22:33:12.289Z,5.00
2018-01-15T22:35:40.375Z,5.00
2018-01-15T22:38:08.510Z,5.00
2018-01-15T22:40:36.611Z,5.10
2018-01-15T22:43:04.751Z,5.10
2018-01-15T22:45:32.866Z,5.00
2018-01-15T22:48:00.994Z,4.90
2018-01-15T22:50:29.120Z,5.00
2018-01-15T22:52:57.257Z,4.90
2018-01-15T22:55:25.357Z,4.90
2018-01-15T22:57:53.482Z,4.90
2018-01-15T23:00:21.604Z,4.90
2018-01-15T23:02:49.741Z,5.00
2018-01-15T23:05:17.848Z,5.00
2018-01-15T23:07:46.117Z,5.00
2018-01-15T23:10:14.242Z,5.00
2018-01-15T23:12:42.391Z,4.90
2018-01-15T23:15:14.806Z,5.00
2018-01-15T23:17:42.958Z,5.10
2018-01-15T23:20:11.820Z,5.10
2018-01-15T23:22:39.966Z,5.10
2018-01-15T23:25:08.077Z,5.00
2018-01-15T23:27:36.243Z,5.10
2018-01-15T23:30:04.346Z,5.00
2018-01-15T23:32:33.250Z,5.10
2018-01-15T23:35:01.557Z,5.10
2018-01-15T23:37:29.720Z,5.10
2018-01-15T23:39:57.821Z,5.10
2018-01-15T23:42:25.948Z,5.10
2018-01-15T23:44:54.050Z,5.00
2018-01-15T23:47:22.182Z,5.00
2018-01-15T23:49:51.071Z,5.10
2018-01-15T23:52:19.221Z,5.10
2018-01-15T23:54:47.331Z,5.20
2018-01-15T23:57:15.477Z,5.20
2018-01-15T23:59:43.582Z,5.10
